ADDS METAR Data INFO
IDs: Format: Raw Decoded Include TAF

Data at: 1844 UTC 17 Oct 2017

PAGN 171756Z AUTO 13003KT 10SM OVC003 04/04 A2967 RMK AO2 RAE25 SLP035 P0000 60000 T00440039 10044 20028 51007
PAGN 171721Z AUTO 00000KT 10SM -RA BKN003 BKN030 OVC050 04/04 A2966 RMK AO2 P0000
PAGN 171656Z AUTO 14005KT 10SM -RA FEW003 BKN012 OVC030 04/03 A2966 RMK AO2 SLP034 P0000 T00390033
PAGN 171648Z AUTO 00000KT 10SM SCT003 OVC012 03/03 A2966 RMK AO2 RAE36 P0000
PAGN 171556Z AUTO 16003KT 9SM -RA OVC003 03/03 A2965 RMK AO2 RAE08B40 SLP030 P0000 T00330033
PAGN 171512Z AUTO 00000KT 3SM BR OVC003 03/03 A2964 RMK AO2 RAE08 P0000
PAGN 171505Z AUTO 00000KT 1 1/4SM -RA BR OVC003 03/03 A2964 RMK AO2 P0000
PAGN 171456Z AUTO 00000KT 3/4SM -RA BR OVC003 03/03 A2964 RMK AO2 RAB52 SLP028 P0000 60000 T00330028 53005 RVRNO
PAGN 171442Z AUTO 18003KT 3/4SM BR OVC003 03/03 A2964 RMK AO2 RVRNO
PAGN 171436Z AUTO 00000KT 1 3/4SM BR BKN003 03/03 A2964 RMK AO2
PAGN 171432Z AUTO 19003KT 3SM BR BKN003 BKN060 03/03 A2964 RMK AO2
PAGN 171356Z AUTO 00000KT 10SM FEW003 SCT010 03/03 A2964 RMK AO2 SLP026 T00280028
PAGN 171306Z AUTO 00000KT 10SM FEW006 BKN050 03/03 A2964 RMK AO2
PAGN 171256Z AUTO 00000KT 10SM SCT006 BKN011 OVC050 04/03 A2963 RMK AO2 RAE27 SLP024 P0000 T00390033
PAGN 171219Z AUTO 00000KT 10SM -RA SCT003 OVC009 04/03 A2963 RMK AO2 P0000
PAGN 171156Z AUTO 00000KT 10SM -RA OVC003 04/03 A2963 RMK AO2 RAB54 SLP023 P0000 60000 70012 T00390033 10044 20039 50005
PAGN 171141Z AUTO 00000KT 10SM OVC003 04/03 A2963 RMK AO2
PAGN 171056Z AUTO 15004KT 10SM OVC005 04/03 A2963 RMK AO2 SLP024 T00390033
PAGN 171048Z AUTO 14003KT 10SM BKN005 OVC008 04/03 A2963 RMK AO2
PAGN 170956Z AUTO 00000KT 10SM OVC008 04/03 A2963 RMK AO2 SLP022 T00390033
PAGN 170926Z AUTO 14004KT 10SM OVC008 04/03 A2962 RMK AO2
PAGN 170856Z AUTO 15004KT 10SM OVC010 04/03 A2962 RMK AO2 SLP018 T00390033 400720039 53005
PAGN 170813Z AUTO 00000KT 10SM OVC010 04/03 A2961 RMK AO2
PAGN 170756Z AUTO 00000KT 10SM OVC008 04/03 A2961 RMK AO2 SLP016 T00390033
PAGN 170720Z AUTO 00000KT 10SM OVC008 04/03 A2961 RMK AO2 CIG 003V011
PAGN 170704Z AUTO 00000KT 10SM BKN004 OVC011 04/03 A2961 RMK AO2
PAGN 170656Z AUTO 07003KT 10SM SCT004 OVC011 04/03 A2960 RMK AO2 SLP014 T00390033
PAGN 170603Z AUTO 13004KT 10SM FEW007 OVC011 04/04 A2960 RMK AO2
PAGN 170556Z AUTO 15003KT 10SM OVC011 04/04 A2960 RMK AO2 SLP013 60001 T00440039 10056 20044 53007
PAGN 170456Z AUTO 00000KT 10SM FEW003 BKN011 05/04 A2959 RMK AO2 RAE0359 SLP010 P0000 T00500044
PAGN 170437Z AUTO 00000KT 10SM BKN011 05/04 A2959 RMK AO2 RAE0359 P0000
PAGN 170404Z AUTO 00000KT 10SM SCT011 06/04 A2958 RMK AO2 RAE0359 P0000
PAGN 170356Z AUTO 00000KT 10SM -RA SCT011 BKN016 BKN026 06/04 A2958 RMK AO2 RAB17 SLP006 P0000 T00560044
PAGN 170256Z AUTO 00000KT 10SM BKN012 OVC039 06/04 A2958 RMK AO2 RAE17 SLP005 P0000 60001 T00560044 51003
PAGN 170156Z AUTO 00000KT 8SM -RA BKN014 OVC039 05/04 A2958 RMK AO2 SLP005 P0001 T00500044
PAGN 170056Z AUTO 00000KT 10SM -RA FEW038 OVC050 06/04 A2957 RMK AO2 RAE26B42 SLP004 P0000 T00560044
PAGN 162356Z AUTO 16003KT 10SM -RA FEW029 BKN055 OVC070 06/04 A2957 RMK AO2 SLP002 P0003 60009 T00610039 10072 20056 58001
PAGN 162347Z AUTO 17003KT 10SM -RA FEW014 BKN055 OVC075 06/04 A2957 RMK AO2 P0002
PAGN 162313Z AUTO 00000KT 5SM RA BR SCT020 BKN027 OVC045 06/06 A2957 RMK AO2 P0001
PAGN 162256Z AUTO 00000KT 10SM -RA SCT036 OVC045 06/06 A2957 RMK AO2 SLP004 P0005 T00610056
PAGN 162238Z AUTO 00000KT 8SM -RA FEW019 BKN038 OVC050 06/06 A2957 RMK AO2 P0004
PAGN 162213Z AUTO 00000KT 4SM RA BR SCT021 BKN026 OVC033 06/06 A2957 RMK AO2 P0003
PAGN 162156Z AUTO 00000KT 10SM -RA SCT026 BKN033 OVC041 07/06 A2957 RMK AO2 RAB20 SLP003 P0001 T00670056
PAGN 162154Z AUTO 00000KT 10SM -RA SCT026 BKN033 OVC041 07/05 A2957 RMK AO2 RAB20 P0001
PAGN 162056Z AUTO 00000KT 10SM SCT010 BKN028 BKN065 07/05 A2957 RMK AO2 SLP001 60000 T00720050 53001
PAGN 162044Z AUTO 00000KT 10SM SCT008 BKN065 07/05 A2956 RMK AO2
PAGN 161956Z AUTO 00000KT 10SM BKN045 07/04 A2956 RMK AO2 RAB14E31 SLP001 P0000 T00670044
PAGN 161948Z AUTO 00000KT 10SM FEW029 BKN045 07/04 A2956 RMK AO2 RAB14E31 P0000
PAGN 161921Z AUTO 00000KT 10SM -RA FEW021 BKN027 OVC060 07/05 A2956 RMK AO2 RAB14 P0000
PAGN 161856Z AUTO 00000KT 10SM SCT021 BKN047 OVC060 06/05 A2956 RMK AO2 SLP000 T00610050
PAGN 161756Z AUTO 00000KT 10SM BKN023 BKN065 06/04 A2956 RMK AO2 SLP000 60002 T00560044 10061 20050 56003
PAGN 161719Z AUTO 15003KT 10SM BKN025 05/04 A2956 RMK AO2
PAGN 161656Z AUTO 00000KT 10SM FEW025 05/04 A2956 RMK AO2 SLP000 T00500044
PAGN 161636Z AUTO 00000KT 10SM SCT022 SCT033 05/04 A2956 RMK AO2
PAGN 161608Z AUTO 15003KT 10SM FEW003 BKN026 OVC031 06/05 A2956 RMK AO2
PAGN 161556Z AUTO 00000KT 10SM OVC026 06/05 A2957 RMK AO2 RAE1458 SLP002 P0000 T00560050
PAGN 161456Z AUTO 00000KT 10SM -RA OVC032 06/05 A2957 RMK AO2 SLP003 P0001 60002 T00610050 56022
PAGN 161356Z AUTO 00000KT 10SM -RA BKN030 BKN035 OVC042 06/06 A2959 RMK AO2 SLP008 P0001 T00610056
PAGN 161256Z AUTO 00000KT 10SM -RA BKN032 BKN041 OVC050 06/05 A2961 RMK AO2 RAB24 SLP015 P0000 T00610050
PAGN 161156Z AUTO 00000KT 10SM BKN035 BKN085 06/05 A2964 RMK AO2 RAE17 SLP025 P0001 60001 70060 T00560050 10061 20050 58021
PAGN 161056Z AUTO 00000KT 10SM -RA BKN037 OVC048 06/05 A2967 RMK AO2 RAB16 SLP038 P0000 T00560050
PAGN 160956Z AUTO 00000KT 10SM FEW050 BKN065 BKN085 05/04 A2969 RMK AO2 SLP043 T00500044
PAGN 160856Z AUTO 00000KT 10SM FEW034 BKN050 06/05 A2970 RMK AO2 SLP047 60000 T00560050 400890050 58002
PAGN 160756Z AUTO 00000KT 10SM SCT048 OVC065 06/05 A2970 RMK AO2 SLP048 T00560050
PAGN 160656Z AUTO 00000KT 10SM FEW004 SCT037 OVC049 06/05 A2971 RMK AO2 RAB25E42 SLP050 P0000 T00560050